createdAt,value
2023-03-25T00:09:52.259Z,6.80
2023-03-25T00:20:12.631Z,6.60
2023-03-25T00:30:20.821Z,5.90
2023-03-25T00:40:29.849Z,6.20
2023-03-25T00:50:36.568Z,7.80
2023-03-25T01:00:43.106Z,7.60
2023-03-25T01:10:49.626Z,7.30
2023-03-25T01:20:56.588Z,9.10
2023-03-25T01:31:07.696Z,7.90
2023-03-25T01:41:14.326Z,8.00
2023-03-25T01:51:27.848Z,6.80
2023-03-25T02:01:34.525Z,5.70
2023-03-25T02:11:41.877Z,5.60
2023-03-25T02:22:27.140Z,5.80
2023-03-25T02:32:39.553Z,4.80
2023-03-25T02:42:51.627Z,5.30
2023-03-25T02:53:02.026Z,4.70
2023-03-25T03:03:09.648Z,4.60
2023-03-25T03:13:25.132Z,4.90
2023-03-25T03:23:39.536Z,5.00
2023-03-25T03:33:56.660Z,5.60
2023-03-25T03:44:09.798Z,6.00
2023-03-25T03:54:58.818Z,6.40
2023-03-25T04:05:08.410Z,6.90
2023-03-25T04:15:15.947Z,6.80
2023-03-25T04:25:26.879Z,7.70
2023-03-25T04:35:34.565Z,6.60
2023-03-25T04:45:43.979Z,6.00
2023-03-25T04:55:50.958Z,6.30
2023-03-25T05:05:57.915Z,6.90
2023-03-25T05:16:04.449Z,7.20
2023-03-25T05:26:11.219Z,7.90
2023-03-25T05:36:20.530Z,8.80
2023-03-25T05:46:27.139Z,9.30
2023-03-25T05:56:33.691Z,8.20
2023-03-25T06:06:41.166Z,11.30
2023-03-25T06:16:48.285Z,10.90
2023-03-25T06:28:26.689Z,8.30
2023-03-25T06:38:41.664Z,12.80
2023-03-25T06:48:54.692Z,17.40
2023-03-25T06:59:07.694Z,10.00
2023-03-25T07:09:20.708Z,11.70
2023-03-25T07:19:33.701Z,10.90
2023-03-25T07:29:47.708Z,8.80
2023-03-25T07:40:00.717Z,8.90
2023-03-25T07:50:14.754Z,6.00
2023-03-25T08:00:27.761Z,5.40
2023-03-25T08:10:42.762Z,6.20
2023-03-25T08:20:57.731Z,6.40
2023-03-25T08:31:17.796Z,5.60
2023-03-25T08:41:30.733Z,5.80
2023-03-25T08:51:43.784Z,6.70
2023-03-25T09:01:57.800Z,6.20
2023-03-25T09:12:13.792Z,5.80
2023-03-25T09:22:26.780Z,5.70
2023-03-25T09:32:39.856Z,6.20
2023-03-25T09:43:06.818Z,4.50
2023-03-25T09:53:22.817Z,4.70
2023-03-25T10:03:41.829Z,4.70
2023-03-25T10:14:07.933Z,3.50
2023-03-25T10:24:34.856Z,4.10
2023-03-25T10:34:54.901Z,4.00
2023-03-25T10:45:07.852Z,3.80
2023-03-25T10:55:31.882Z,4.00
2023-03-25T11:05:44.881Z,4.30
2023-03-25T11:16:00.903Z,4.00
2023-03-25T11:26:18.919Z,3.50
2023-03-25T11:36:45.894Z,3.70
2023-03-25T11:46:59.881Z,3.50
2023-03-25T11:57:15.909Z,3.30
2023-03-25T12:07:29.924Z,3.80
2023-03-25T12:18:07.996Z,3.60
2023-03-25T12:28:52.950Z,4.20
2023-03-25T12:39:35.754Z,4.20
2023-03-25T12:50:05.944Z,4.00
2023-03-25T13:00:24.974Z,4.30
2023-03-25T13:10:48.053Z,5.00
2023-03-25T13:21:31.976Z,4.80
2023-03-25T13:31:54.993Z,5.10
2023-03-25T13:42:20.005Z,5.80
2023-03-25T13:52:38.009Z,4.80
2023-03-25T14:03:19.999Z,4.00
2023-03-25T14:13:36.032Z,3.80
2023-03-25T14:23:49.024Z,4.00
2023-03-25T14:34:08.065Z,3.80
2023-03-25T14:44:28.031Z,3.50
2023-03-25T14:54:42.062Z,4.30
2023-03-25T15:05:05.027Z,4.60
2023-03-25T15:15:53.218Z,6.70
2023-03-25T15:26:07.083Z,4.70
2023-03-25T15:37:04.068Z,6.70
2023-03-25T15:47:38.156Z,3.80
2023-03-25T15:57:55.067Z,3.60
2023-03-25T16:08:17.113Z,4.80
2023-03-25T16:18:31.100Z,4.00
2023-03-25T16:28:50.126Z,4.80
2023-03-25T16:39:10.128Z,6.10
2023-03-25T16:49:30.149Z,6.00
2023-03-25T16:59:45.140Z,6.70
2023-03-25T17:09:59.142Z,7.70
2023-03-25T17:20:16.129Z,6.10
2023-03-25T17:30:48.212Z,6.80
2023-03-25T17:41:14.141Z,15.10
2023-03-25T17:51:28.204Z,13.00
2023-03-25T18:01:43.220Z,15.20
2023-03-25T18:12:00.207Z,13.80
2023-03-25T18:22:19.765Z,17.80
2023-03-25T18:32:33.248Z,13.00
2023-03-25T18:42:46.235Z,18.20
2023-03-25T18:52:59.271Z,14.80
2023-03-25T19:03:12.301Z,14.10
2023-03-25T19:13:27.235Z,21.00
2023-03-25T19:23:40.228Z,16.70
2023-03-25T19:34:00.280Z,17.20
2023-03-25T19:44:13.228Z,17.40
2023-03-25T19:54:26.307Z,19.80
2023-03-25T20:04:40.263Z,18.20
2023-03-25T20:14:53.285Z,16.30
2023-03-25T20:25:06.262Z,16.20
2023-03-25T20:35:21.352Z,14.80
2023-03-25T20:45:37.336Z,14.10
2023-03-25T20:55:50.472Z,14.20
2023-03-25T21:06:21.004Z,14.70
2023-03-25T21:16:37.410Z,14.90
2023-03-25T21:26:50.302Z,5.60
2023-03-25T21:37:11.323Z,6.10
2023-03-25T21:47:25.394Z,6.40
2023-03-25T21:57:38.562Z,7.20
2023-03-25T22:07:52.369Z,6.70
2023-03-25T22:18:05.386Z,9.60
2023-03-25T22:28:18.377Z,7.60
2023-03-25T22:38:31.379Z,7.20
2023-03-25T22:48:47.356Z,7.20
2023-03-25T22:59:01.383Z,6.60
2023-03-25T23:09:16.401Z,5.80
2023-03-25T23:19:29.419Z,6.00
2023-03-25T23:29:44.445Z,5.80
2023-03-25T23:40:04.455Z,5.40
2023-03-25T23:50:19.412Z,5.40
